This is the latest recevied weather packets stored in our database for station/object W5CRT. If no packets are shown the sender has not sent any weather packets the latest 1 day(s).
| Time | Temp. | Humidity | Pressure | Rain* | Wind** | Luminosity | Snow |
|---|---|---|---|---|---|---|---|
| 1778090328 | 12.78° C | 86% | 1011.6 hPa | 0 mm | - | 227 W/m² | - |
| 1778088813 | 12.78° C | 88% | 1012.5 hPa | 0 mm | - | 161 W/m² | - |
| 1778087299 | 12.78° C | 89% | 1012.2 hPa | 0 mm | - | 129 W/m² | - |
| 1778086391 | 12.22° C | 88% | 1012.8 hPa | 0 mm | - | 115 W/m² | - |
| 1778085176 | 12.78° C | 90% | 1013.1 hPa | 0 mm | - | 242 W/m² | - |
| 1778084872 | 12.78° C | 90% | 1012.9 hPa | 0 mm | - | 361 W/m² | - |
| 1778083662 | 12.22° C | 91% | 1012.2 hPa | 0.51 mm | - | 252 W/m² | - |
| 1778081015 | 12.78° C | 81% | 1013.2 hPa | 0 mm | - | 45 W/m² | - |
| 1778080410 | 12.78° C | 80% | 1013 hPa | 0 mm | - | 37 W/m² | - |
| 1778079804 | 12.78° C | 81% | 1011.8 hPa | 0 mm | - | 127 W/m² | - |
| 1778079197 | 12.78° C | 80% | 1012.9 hPa | 0 mm | - | 63 W/m² | - |
| 1778078895 | 12.78° C | 80% | 1013.2 hPa | 0 mm | - | 74 W/m² | - |
| 1778077986 | 12.78° C | 81% | 1012.4 hPa | 0 mm | - | 100 W/m² | - |
| 1778077382 | 12.22° C | 81% | 1012.4 hPa | 0 mm | - | 88 W/m² | - |
| 1778077080 | 12.22° C | 81% | 1012.3 hPa | 0 mm | - | 72 W/m² | - |
| 1778076778 | 12.22° C | 81% | 1012 hPa | 0 mm | - | 71 W/m² | - |
| 1778075262 | 11.67° C | 83% | 1011.6 hPa | 0 mm | - | 60 W/m² | - |
| 1778071930 | 11.67° C | 82% | 1011.1 hPa | 0 mm | - | 33 W/m² | - |
| 1778069813 | 11.67° C | 83% | 1011.1 hPa | 0 mm | - | 14 W/m² | - |
| 1778069509 | 12.22° C | 82% | 1011 hPa | 0 mm | - | 11 W/m² | - |
| 1778068904 | 12.22° C | 82% | 1010.5 hPa | 0 mm | - | 7 W/m² | - |
| 1778066182 | 12.78° C | 78% | 1009.9 hPa | 0 mm | - | 0 W/m² | - |
| 1778065879 | 12.78° C | 77% | 1009.8 hPa | 0 mm | - | 0 W/m² | - |
| 1778065274 | 12.78° C | 76% | 1009.6 hPa | 0 mm | - | 0 W/m² | - |
| 1778064970 | 12.78° C | 76% | 1009.6 hPa | 0 mm | - | 0 W/m² | - |
* Rain latest hour (hover to see other rain measurements)
** Current wind speed in m/s (hover to see current wind gust speed)